Time;durP1;ratioP1;P1;durP2;ratioP2;P2;SDS_P1;SDS_P2;PMS_P1;PMS_P2;Temp;Humidity;BMP_temperature;BMP_pressure;BME280_temperature;BME280_humidity;BME280_pressure;Samples;Min_cycle;Max_cycle;Signal;HPM_P1;HPM_P2
2022/12/03 00:01:48;;;;;;;18.02;9.90;;;;;;;2.36;84.52;101720.69;5034985;28;20041;-62
2022/12/03 00:04:13;;;;;;;16.45;9.63;;;;;;;2.37;85.23;101721.53;5028903;28;20025;-63
2022/12/03 00:06:38;;;;;;;16.70;9.75;;;;;;;2.37;84.68;101716.41;5043743;28;20047;-63
2022/12/03 00:09:04;;;;;;;17.70;10.45;;;;;;;2.37;84.74;101709.66;5051346;28;20121;-63
2022/12/03 00:11:30;;;;;;;17.10;9.52;;;;;;;2.38;84.23;101716.50;5054176;28;20110;-63
2022/12/03 00:13:55;;;;;;;15.98;9.05;;;;;;;2.40;84.52;101711.44;5045608;28;20065;-63
2022/12/03 00:16:21;;;;;;;15.25;8.95;;;;;;;2.41;84.53;101714.06;5057473;28;20047;-65
2022/12/03 00:18:46;;;;;;;18.35;9.43;;;;;;;2.41;84.70;101710.66;5053232;28;20033;-63
2022/12/03 00:21:11;;;;;;;13.52;7.90;;;;;;;2.42;84.66;101705.63;5057550;28;20481;-62
2022/12/03 00:23:37;;;;;;;18.65;9.18;;;;;;;2.43;85.18;101712.44;5055624;28;20097;-62
2022/12/03 00:26:02;;;;;;;19.30;9.45;;;;;;;2.43;85.08;101707.34;5056110;28;20043;-63
2022/12/03 00:28:27;;;;;;;15.98;8.45;;;;;;;2.42;84.82;101710.72;5059049;28;20044;-63
2022/12/03 00:30:53;;;;;;;17.48;9.73;;;;;;;2.43;85.19;101706.47;5056341;28;20095;-63
2022/12/03 00:33:19;;;;;;;16.88;8.82;;;;;;;2.41;84.92;101706.41;5058088;28;20599;-63
2022/12/03 00:35:45;;;;;;;15.18;9.38;;;;;;;2.42;84.55;101697.09;5055304;28;20685;-63
2022/12/03 00:38:10;;;;;;;16.23;9.57;;;;;;;2.42;84.43;101702.19;5058890;28;20028;-63
2022/12/03 00:40:36;;;;;;;18.50;9.52;;;;;;;2.44;84.83;101705.66;5058683;28;20063;-63
2022/12/03 00:43:01;;;;;;;18.10;9.02;;;;;;;2.42;84.98;101702.19;5055822;28;20041;-63
2022/12/03 00:45:27;;;;;;;18.38;8.38;;;;;;;2.41;84.95;101703.00;5052832;28;20648;-63
2022/12/03 00:47:52;;;;;;;15.90;9.10;;;;;;;2.44;85.29;101698.00;5054783;28;20463;-63
2022/12/03 00:50:17;;;;;;;18.83;9.77;;;;;;;2.45;84.60;101692.09;5052332;28;20032;-63
2022/12/03 00:52:43;;;;;;;16.73;9.27;;;;;;;2.47;85.35;101694.69;5052017;28;20631;-63
2022/12/03 00:55:08;;;;;;;19.30;9.32;;;;;;;2.46;84.77;101690.44;5056679;28;20048;-63
2022/12/03 00:57:34;;;;;;;17.05;9.55;;;;;;;2.47;84.49;101697.25;5048133;28;20041;-63
2022/12/03 00:59:59;;;;;;;16.08;9.30;;;;;;;2.46;84.42;101690.44;5059894;28;20028;-63
2022/12/03 01:02:24;;;;;;;16.00;8.70;;;;;;;2.47;84.56;101695.56;5046522;28;20464;-63
2022/12/03 01:04:50;;;;;;;14.90;8.57;;;;;;;2.48;85.41;101688.78;5057867;28;20036;-63
2022/12/03 01:07:15;;;;;;;16.20;8.35;;;;;;;2.46;84.99;101687.88;5054055;28;20069;-63
2022/12/03 01:09:41;;;;;;;14.57;8.05;;;;;;;2.47;84.29;101700.69;5053788;28;20045;-63
2022/12/03 01:12:06;;;;;;;14.35;8.75;;;;;;;2.48;84.28;101686.25;5053196;28;20037;-64
2022/12/03 01:14:31;;;;;;;14.45;8.27;;;;;;;2.50;84.87;101689.72;5052478;28;20039;-62
2022/12/03 01:16:57;;;;;;;11.88;8.07;;;;;;;2.52;84.49;101694.06;5047592;28;20111;-63
2022/12/03 01:19:23;;;;;;;13.05;8.57;;;;;;;2.52;84.75;101686.41;5049570;28;20128;-62
2022/12/03 01:21:50;;;;;;;15.45;8.43;;;;;;;2.54;84.48;101689.91;5049925;28;20552;-63
2022/12/03 01:24:18;;;;;;;12.20;6.97;;;;;;;2.56;84.29;101689.94;5055810;28;20068;-63
2022/12/03 01:26:43;;;;;;;14.18;8.85;;;;;;;2.56;84.19;101688.28;5055791;28;20062;-63
2022/12/03 01:29:09;;;;;;;10.95;6.78;;;;;;;2.57;84.18;101687.47;5053327;28;20037;-63
2022/12/03 01:34:18;;;;;;;16.08;8.52;;;;;;;2.61;83.69;101698.66;5055852;28;20543;-62
2022/12/03 01:36:43;;;;;;;14.38;8.15;;;;;;;2.62;83.52;101692.75;5052118;28;20585;-63
2022/12/03 01:39:09;;;;;;;18.13;9.48;;;;;;;2.62;82.89;101696.16;5053087;28;20561;-63
2022/12/03 01:41:34;;;;;;;14.27;8.30;;;;;;;2.64;82.83;101693.66;5056083;28;20032;-62
2022/12/03 01:44:01;;;;;;;15.82;8.38;;;;;;;2.64;82.91;101698.75;5057338;28;20044;-63
2022/12/03 01:46:33;;;;;;;15.02;8.73;;;;;;;2.64;83.66;101697.09;5058131;28;20043;-63
2022/12/03 01:48:59;;;;;;;13.77;8.10;;;;;;;2.64;82.99;101697.09;5057977;28;20044;-63
2022/12/03 01:51:24;;;;;;;12.98;7.78;;;;;;;2.66;82.70;101698.03;5055393;28;20032;-63
2022/12/03 01:53:50;;;;;;;13.23;7.78;;;;;;;2.66;83.83;101690.38;5047924;28;20041;-63
2022/12/03 01:56:17;;;;;;;14.88;8.10;;;;;;;2.68;82.74;101693.84;5054169;28;20040;-63
2022/12/03 01:58:43;;;;;;;13.48;7.90;;;;;;;2.69;83.37;101689.63;5055229;28;20047;-63
2022/12/03 02:01:14;;;;;;;13.95;8.35;;;;;;;2.68;83.77;101696.41;5054562;28;20037;-63
2022/12/03 02:03:40;;;;;;;12.48;7.40;;;;;;;2.69;83.92;101687.06;5053111;28;20041;-63
2022/12/03 02:06:13;;;;;;;12.50;8.00;;;;;;;2.68;83.62;101688.75;5055574;28;20043;-63
2022/12/03 02:08:39;;;;;;;15.18;8.35;;;;;;;2.69;84.02;101693.06;5047819;28;20036;-63
2022/12/03 02:11:10;;;;;;;17.33;8.20;;;;;;;2.70;83.33;101692.22;5054280;28;20036;-63
2022/12/03 02:13:36;;;;;;;11.77;7.15;;;;;;;2.72;83.08;101689.75;5048794;28;20037;-63
2022/12/03 02:16:02;;;;;;;12.82;7.82;;;;;;;2.72;83.56;101693.16;5050745;28;20043;-63
2022/12/03 02:18:28;;;;;;;15.52;8.68;;;;;;;2.73;82.90;101687.22;5045143;28;20071;-63
2022/12/03 02:21:00;;;;;;;12.07;7.30;;;;;;;2.75;83.05;101687.31;5057232;28;20036;-63
2022/12/03 02:23:45;;;;;;;13.30;7.72;;;;;;;2.75;83.24;101688.19;5047309;28;20045;-63
2022/12/03 02:26:11;;;;;;;13.15;7.97;;;;;;;2.77;83.22;101693.31;5051196;28;20028;-63
2022/12/03 02:28:37;;;;;;;14.60;8.88;;;;;;;2.75;83.49;101684.75;5046585;28;20123;-63
2022/12/03 02:31:04;;;;;;;16.60;8.52;;;;;;;2.74;83.59;101686.44;5055525;28;20572;-63
2022/12/03 02:33:29;;;;;;;15.98;8.32;;;;;;;2.76;83.12;101686.47;5045838;28;20547;-63
2022/12/03 02:35:55;;;;;;;19.40;8.52;;;;;;;2.74;83.08;101681.31;5052069;28;20044;-62
2022/12/03 02:38:24;;;;;;;16.42;8.90;;;;;;;2.74;83.86;101688.97;5052527;28;20048;-63
2022/12/03 02:40:54;;;;;;;15.00;8.65;;;;;;;2.75;83.92;101683.06;5048216;28;20142;-63
2022/12/03 02:43:20;;;;;;;14.70;8.35;;;;;;;2.76;84.17;101679.69;5048747;28;20681;-63
2022/12/03 02:45:50;;;;;;;16.00;8.40;;;;;;;2.76;83.26;101678.81;5053085;28;20037;-63
2022/12/03 02:48:20;;;;;;;19.50;8.88;;;;;;;2.77;83.13;101668.66;5050123;28;20064;-63
2022/12/03 02:50:52;;;;;;;19.35;8.98;;;;;;;2.79;82.93;101673.81;5048948;28;20040;-63
2022/12/03 02:53:25;;;;;;;16.40;8.98;;;;;;;2.82;81.71;101673.94;5054316;28;20101;-63
2022/12/03 02:55:53;;;;;;;17.17;8.80;;;;;;;2.82;81.60;101672.25;5054978;28;20078;-63
2022/12/03 02:58:20;;;;;;;16.27;8.82;;;;;;;2.84;81.63;101678.31;5054035;28;20097;-63
2022/12/03 03:00:46;;;;;;;15.85;8.70;;;;;;;2.86;81.74;101675.81;5044994;28;20040;-63
2022/12/03 03:03:11;;;;;;;17.00;8.98;;;;;;;2.88;82.27;101677.59;5060304;28;20036;-62
2022/12/03 03:05:38;;;;;;;16.58;8.88;;;;;;;2.87;82.64;101675.84;5061350;28;20056;-63
2022/12/03 03:08:06;;;;;;;16.88;9.60;;;;;;;2.88;82.27;101674.16;5051075;28;20041;-63
2022/12/03 03:10:34;;;;;;;17.25;9.77;;;;;;;2.87;82.41;101673.28;5060582;28;22333;-63
2022/12/03 03:13:02;;;;;;;16.02;8.90;;;;;;;2.87;82.32;101670.72;5059915;28;20119;-63
2022/12/03 03:15:27;;;;;;;17.10;9.40;;;;;;;2.88;81.70;101664.81;5061222;28;20074;-63
2022/12/03 03:17:53;;;;;;;16.92;9.88;;;;;;;2.88;81.20;101667.38;5053511;28;20029;-63
2022/12/03 03:20:18;;;;;;;19.02;10.23;;;;;;;2.88;81.38;101663.94;5060107;28;20047;-63
2022/12/03 03:22:43;;;;;;;18.05;9.30;;;;;;;2.88;81.33;101661.41;5054565;28;20041;-63
2022/12/03 03:25:14;;;;;;;17.38;10.18;;;;;;;2.89;81.66;101650.38;5057069;28;20066;-63
2022/12/03 03:27:40;;;;;;;17.23;9.10;;;;;;;2.89;80.82;101656.38;5059914;28;20051;-63
2022/12/03 03:30:07;;;;;;;17.77;10.13;;;;;;;2.89;80.37;101658.91;5055177;28;20029;-63
2022/12/03 03:32:33;;;;;;;17.75;10.07;;;;;;;2.91;79.99;101662.38;5055708;28;20035;-63
2022/12/03 03:34:59;;;;;;;19.40;9.82;;;;;;;2.92;80.40;101655.59;5060674;28;20136;-63
2022/12/03 03:37:24;;;;;;;19.88;9.68;;;;;;;2.90;80.75;101649.56;5059360;28;20120;-64
2022/12/03 03:39:50;;;;;;;22.25;10.70;;;;;;;2.89;79.84;101655.50;5056569;28;20044;-63
2022/12/03 03:42:16;;;;;;;21.23;10.98;;;;;;;2.92;79.80;101658.16;5058381;28;20041;-63
2022/12/03 03:44:42;;;;;;;20.00;10.55;;;;;;;2.92;80.49;101665.81;5060316;28;20056;-63
2022/12/03 03:47:07;;;;;;;25.20;10.82;;;;;;;2.92;79.26;101653.03;5060843;28;20707;-63
2022/12/03 03:49:33;;;;;;;19.05;9.80;;;;;;;2.91;80.30;101649.63;5061261;28;20157;-63
2022/12/03 03:51:58;;;;;;;19.98;10.25;;;;;;;2.90;79.87;101652.97;5056057;28;20561;-63
2022/12/03 03:54:24;;;;;;;21.83;10.52;;;;;;;2.92;79.58;101647.94;5060328;28;20037;-63
2022/12/03 03:56:50;;;;;;;20.52;10.80;;;;;;;2.91;79.95;101652.16;5061213;28;20489;-63
2022/12/03 03:59:15;;;;;;;18.83;10.35;;;;;;;2.90;80.31;101652.97;5061552;28;20067;-63
2022/12/03 04:01:43;;;;;;;19.20;11.13;;;;;;;2.92;80.74;101650.50;5060224;28;20160;-63
2022/12/03 04:04:18;;;;;;;19.17;10.68;;;;;;;2.93;80.38;101655.63;5054706;28;20040;-63
2022/12/03 04:06:44;;;;;;;20.67;10.30;;;;;;;2.94;80.85;101654.84;5055153;28;20048;-64
2022/12/03 04:09:10;;;;;;;20.80;10.18;;;;;;;2.92;79.87;101659.03;5054154;28;20129;-62
2022/12/03 04:14:19;;;;;;;22.50;11.07;;;;;;;2.93;80.89;101655.63;5054259;28;20792;-63
2022/12/03 04:16:44;;;;;;;20.50;10.60;;;;;;;2.94;80.58;101648.84;5056230;28;20049;-63
2022/12/03 04:19:09;;;;;;;18.00;9.77;;;;;;;2.92;79.30;101653.03;5047599;28;20128;-63
2022/12/03 04:24:18;;;;;;;19.67;9.40;;;;;;;2.91;79.79;101654.72;5038733;28;21138;-61
2022/12/03 04:29:27;;;;;;;16.98;10.05;;;;;;;2.91;79.73;101649.63;5039266;28;20110;-62
2022/12/03 04:37:20;;;;;;;18.42;9.48;;;;;;;2.82;79.11;101645.84;5055696;28;20034;-59
2022/12/03 04:39:46;;;;;;;21.63;11.60;;;;;;;2.80;79.38;101642.38;5056040;28;20044;-59
2022/12/03 04:42:11;;;;;;;20.00;10.27;;;;;;;2.78;79.70;101638.91;5052600;28;20659;-61
2022/12/03 04:44:37;;;;;;;20.85;10.65;;;;;;;2.73;80.08;101638.72;5059690;28;20033;-61
2022/12/03 04:47:14;;;;;;;18.75;10.48;;;;;;;2.71;80.79;101635.25;5047639;28;20104;-61
2022/12/03 04:49:42;;;;;;;22.92;11.05;;;;;;;2.71;80.90;101636.94;5048544;28;20139;-61
2022/12/03 04:52:09;;;;;;;22.20;11.07;;;;;;;2.71;80.11;101637.81;5053885;28;20040;-61
2022/12/03 04:54:34;;;;;;;19.83;11.02;;;;;;;2.66;80.85;101630.81;5056384;28;20033;-62
2022/12/03 04:57:00;;;;;;;18.88;9.32;;;;;;;2.64;80.55;101628.19;5059068;28;20024;-62
2022/12/03 04:59:25;;;;;;;20.77;10.43;;;;;;;2.63;79.84;101634.13;5059138;28;20024;-61
2022/12/03 05:01:51;;;;;;;23.42;10.93;;;;;;;2.60;80.54;101634.00;5051187;28;20101;-61
2022/12/03 05:04:16;;;;;;;18.58;9.90;;;;;;;2.58;80.87;101629.66;5053289;28;20123;-61
2022/12/03 05:06:42;;;;;;;18.20;10.05;;;;;;;2.55;80.31;101630.38;5053224;28;20159;-62
2022/12/03 05:09:07;;;;;;;19.17;9.98;;;;;;;2.54;80.20;101627.78;5054300;28;20063;-61
2022/12/03 05:11:33;;;;;;;19.98;10.20;;;;;;;2.53;79.96;101634.56;5051291;28;20039;-62
2022/12/03 05:13:59;;;;;;;19.52;9.55;;;;;;;2.53;80.94;101632.03;5027829;28;20029;-61
2022/12/03 05:16:24;;;;;;;20.67;9.52;;;;;;;2.53;80.75;101637.13;5030612;28;20045;-61
2022/12/03 05:18:49;;;;;;;19.65;10.57;;;;;;;2.54;80.95;101632.91;5035808;28;20037;-62
2022/12/03 05:21:15;;;;;;;19.65;10.30;;;;;;;2.54;81.02;101630.34;5035654;28;20059;-61
2022/12/03 05:23:41;;;;;;;16.38;8.35;;;;;;;2.52;80.50;101625.16;5031370;28;20057;-61
2022/12/03 05:26:06;;;;;;;18.83;10.05;;;;;;;2.49;80.72;101624.22;5034117;28;20206;-61
2022/12/03 05:28:32;;;;;;;17.15;9.35;;;;;;;2.47;80.55;101616.47;5031012;28;20041;-61
2022/12/03 05:30:57;;;;;;;18.70;9.63;;;;;;;2.48;80.16;101619.91;5029561;28;20180;-61
2022/12/03 05:33:23;;;;;;;16.17;8.95;;;;;;;2.46;80.72;101619.00;5040301;28;20779;-61
2022/12/03 05:35:48;;;;;;;17.70;9.75;;;;;;;2.44;80.30;101618.91;5054850;28;20477;-61
2022/12/03 05:38:13;;;;;;;17.52;9.18;;;;;;;2.45;80.19;101617.25;5045341;28;20037;-62
2022/12/03 05:40:39;;;;;;;15.73;8.90;;;;;;;2.49;78.93;101608.91;5045073;28;20152;-62
2022/12/03 05:43:04;;;;;;;16.27;8.90;;;;;;;2.48;79.67;101615.69;5040237;28;20072;-61
2022/12/03 05:45:31;;;;;;;16.25;9.38;;;;;;;2.50;80.32;101615.72;5040511;28;20401;-61
2022/12/03 05:47:57;;;;;;;16.08;9.93;;;;;;;2.50;79.98;101619.16;5049021;28;20029;-61
2022/12/03 05:50:25;;;;;;;16.45;9.13;;;;;;;2.53;79.92;101618.38;5032560;28;20111;-60
2022/12/03 05:52:51;;;;;;;19.33;8.85;;;;;;;2.53;79.23;101616.72;5028229;28;20072;-61
2022/12/03 05:55:17;;;;;;;14.20;8.50;;;;;;;2.57;79.10;101616.03;5034521;28;20192;-60
2022/12/03 05:57:46;;;;;;;31.90;19.67;;;;;;;2.55;78.93;101615.06;5042482;28;20101;-62
2022/12/03 06:00:18;;;;;;;129.48;61.35;;;;;;;2.56;79.53;101615.94;5032990;28;20120;-60
2022/12/03 06:02:44;;;;;;;24.95;13.30;;;;;;;2.57;79.79;101618.56;5042520;28;20032;-60
2022/12/03 06:05:11;;;;;;;48.35;24.02;;;;;;;2.57;79.24;101615.16;5029326;28;20488;-60
2022/12/03 06:07:37;;;;;;;44.08;23.40;;;;;;;2.58;79.76;101611.78;5034314;28;20537;-60
2022/12/03 06:10:04;;;;;;;35.22;21.30;;;;;;;2.59;79.03;101610.97;5019212;28;20038;-60
2022/12/03 06:12:30;;;;;;;23.30;17.20;;;;;;;2.59;78.75;101610.97;5032668;28;20064;-60
2022/12/03 06:14:58;;;;;;;22.08;14.98;;;;;;;2.56;78.48;101606.63;5033613;28;20040;-60
2022/12/03 06:17:24;;;;;;;17.58;10.82;;;;;;;2.56;78.79;101611.72;5022579;28;20069;-60
2022/12/03 06:19:49;;;;;;;12.27;7.80;;;;;;;2.57;79.00;101615.16;5032922;28;20124;-63
2022/12/03 06:22:15;;;;;;;16.02;9.80;;;;;;;2.56;79.04;101614.28;5030721;28;20139;-67
2022/12/03 06:24:40;;;;;;;15.57;8.43;;;;;;;2.58;79.40;101610.09;5030668;28;20060;-68
2022/12/03 06:27:05;;;;;;;13.27;7.50;;;;;;;2.58;79.91;101612.63;5029286;28;20041;-67
2022/12/03 06:29:31;;;;;;;12.50;7.93;;;;;;;2.61;79.56;101615.31;5024779;28;20041;-67
2022/12/03 06:31:56;;;;;;;15.95;8.98;;;;;;;2.61;79.20;101610.19;5033268;28;20035;-67
2022/12/03 06:34:22;;;;;;;15.70;8.82;;;;;;;2.61;78.68;101612.75;5023928;28;20782;-68
2022/12/03 06:36:49;;;;;;;15.23;8.68;;;;;;;2.63;79.46;101612.81;5028491;28;20041;-67
2022/12/03 06:39:15;;;;;;;16.88;10.68;;;;;;;2.65;79.75;101613.75;5026627;28;20036;-67
2022/12/03 06:41:40;;;;;;;14.25;7.88;;;;;;;2.63;79.32;101608.59;5031577;28;20030;-68
2022/12/03 06:44:06;;;;;;;12.82;7.60;;;;;;;2.64;78.81;101619.66;5024749;28;20041;-67
2022/12/03 06:46:34;;;;;;;14.88;8.05;;;;;;;2.62;79.20;101619.59;5027727;28;20037;-68
2022/12/03 06:48:59;;;;;;;15.15;10.45;;;;;;;2.61;79.52;101615.31;5030849;28;20045;-67
2022/12/03 06:51:25;;;;;;;72.80;49.63;;;;;;;2.59;79.65;101608.41;5030292;28;20047;-67
2022/12/03 06:53:50;;;;;;;31.08;23.38;;;;;;;2.62;80.32;101619.59;5035958;28;20039;-67
2022/12/03 06:56:15;;;;;;;20.33;14.95;;;;;;;2.62;79.72;101616.19;5033137;28;20044;-68
2022/12/03 06:58:44;;;;;;;17.25;12.00;;;;;;;2.62;79.88;101617.06;5036560;28;20075;-67
2022/12/03 07:01:10;;;;;;;14.82;10.10;;;;;;;2.62;80.32;101611.06;5028475;28;20042;-67
2022/12/03 07:03:35;;;;;;;16.33;9.18;;;;;;;2.62;80.14;101608.53;5029438;28;20067;-68
2022/12/03 07:06:00;;;;;;;19.48;8.77;;;;;;;2.63;80.37;101607.72;5032726;28;20549;-67
2022/12/03 07:08:26;;;;;;;15.60;8.40;;;;;;;2.61;80.79;101615.31;5033191;28;20095;-68
2022/12/03 07:10:52;;;;;;;15.20;8.40;;;;;;;2.60;80.38;101611.03;5025215;28;20529;-67
2022/12/03 07:13:17;;;;;;;17.75;8.45;;;;;;;2.60;80.81;101621.25;5034108;28;20033;-68
2022/12/03 07:15:43;;;;;;;12.43;7.72;;;;;;;2.60;80.27;101618.69;5031551;28;20037;-67
2022/12/03 07:18:08;;;;;;;15.88;8.98;;;;;;;2.56;79.93;101610.84;5037064;28;20052;-67
2022/12/03 07:20:33;;;;;;;14.60;7.68;;;;;;;2.56;79.20;101614.28;5042029;28;20033;-67
2022/12/03 07:22:59;;;;;;;14.00;7.43;;;;;;;2.57;79.74;101610.91;5052562;28;20046;-67
2022/12/03 07:25:24;;;;;;;15.43;8.18;;;;;;;2.56;79.25;101610.84;5043894;28;20037;-67
2022/12/03 07:27:49;;;;;;;15.13;9.05;;;;;;;2.58;79.19;101614.34;5039215;28;20049;-68
2022/12/03 07:30:15;;;;;;;13.80;7.63;;;;;;;2.57;79.36;101612.59;5038898;28;21306;-67
2022/12/03 07:32:40;;;;;;;17.70;8.07;;;;;;;2.58;79.47;101612.63;5038933;28;20033;-67
2022/12/03 07:35:06;;;;;;;18.35;7.65;;;;;;;2.58;79.94;101610.09;5039314;28;20125;-68
2022/12/03 07:37:35;;;;;;;16.42;8.98;;;;;;;2.59;79.68;101613.50;5039590;28;20044;-67
2022/12/03 07:40:01;;;;;;;21.20;10.75;;;;;;;2.59;79.35;101610.97;5032478;28;20106;-67
2022/12/03 07:42:27;;;;;;;24.13;12.95;;;;;;;2.59;79.32;101610.97;5036906;28;20044;-68
2022/12/03 07:44:52;;;;;;;25.10;13.60;;;;;;;2.61;80.17;101616.97;5056285;28;20678;-68
2022/12/03 07:47:18;;;;;;;20.40;13.30;;;;;;;2.63;80.01;101626.47;5062825;28;20040;-68
2022/12/03 07:49:43;;;;;;;18.60;11.48;;;;;;;2.61;79.56;101620.41;5058753;28;20127;-69
2022/12/03 07:52:08;;;;;;;19.67;9.98;;;;;;;2.65;80.45;101621.41;5055557;28;20804;-69
2022/12/03 07:54:34;;;;;;;16.88;9.13;;;;;;;2.65;79.82;101624.81;5057002;28;20044;-69
2022/12/03 07:56:59;;;;;;;17.13;9.73;;;;;;;2.65;79.85;101622.28;5059302;28;20028;-68
2022/12/03 07:59:25;;;;;;;16.05;8.35;;;;;;;2.67;79.20;101614.66;5054953;28;20028;-68
2022/12/03 08:01:50;;;;;;;16.13;8.20;;;;;;;2.69;79.33;101618.16;5057932;28;20033;-68
2022/12/03 08:04:17;;;;;;;13.93;8.73;;;;;;;2.65;79.20;101614.63;5049500;28;20028;-68
2022/12/03 08:06:46;;;;;;;15.75;8.23;;;;;;;2.68;79.34;101617.28;5054553;28;20048;-69
2022/12/03 08:09:12;;;;;;;14.48;8.57;;;;;;;2.69;79.20;101623.25;5057213;28;20078;-67
2022/12/03 08:11:38;;;;;;;14.93;9.35;;;;;;;2.72;79.62;101628.47;5058883;28;20032;-67
2022/12/03 08:14:10;;;;;;;15.23;8.32;;;;;;;2.74;78.99;101624.28;5056659;28;20044;-68
2022/12/03 08:16:39;;;;;;;16.35;8.68;;;;;;;2.75;78.77;101624.38;5058733;28;20036;-68
2022/12/03 08:19:08;;;;;;;17.50;9.88;;;;;;;2.77;78.79;101625.28;5048227;28;20040;-68
2022/12/03 08:21:35;;;;;;;16.40;9.82;;;;;;;2.79;79.04;101622.75;5033244;28;20125;-68
2022/12/03 08:24:18;;;;;;;17.65;9.75;;;;;;;2.81;78.30;101626.25;5037658;28;20059;-68
2022/12/03 08:27:13;;;;;;;16.25;8.32;;;;;;;2.81;78.14;101622.03;5007755;28;20049;-68
2022/12/03 08:29:39;;;;;;;16.88;8.27;;;;;;;2.82;78.71;101625.44;5037110;28;20033;-68
2022/12/03 08:32:05;;;;;;;16.58;8.60;;;;;;;2.83;77.67;101628.06;5040130;28;20095;-68
2022/12/03 08:34:39;;;;;;;15.40;8.02;;;;;;;2.82;78.22;101625.44;5036307;28;20063;-68
2022/12/03 08:37:30;;;;;;;15.50;8.30;;;;;;;2.82;78.55;101630.53;5042777;28;20033;-68
2022/12/03 08:39:56;;;;;;;21.10;9.23;;;;;;;2.86;78.50;101624.75;5056290;28;20502;-69
2022/12/03 08:42:42;;;;;;;17.25;9.05;;;;;;;2.87;78.48;101626.50;5055328;28;20067;-68
2022/12/03 08:45:30;;;;;;;15.52;7.97;;;;;;;2.89;77.62;101622.28;5057108;28;20551;-68
2022/12/03 08:48:02;;;;;;;15.98;8.90;;;;;;;2.90;77.87;101627.44;5048980;28;20020;-68
2022/12/03 08:50:37;;;;;;;17.33;8.73;;;;;;;2.89;77.13;101623.16;5053021;28;20058;-69
2022/12/03 08:53:23;;;;;;;17.20;8.75;;;;;;;2.89;78.30;101627.41;5051410;28;20040;-62
2022/12/03 08:55:54;;;;;;;15.57;8.55;;;;;;;2.91;77.75;101623.22;5053373;28;20147;-61
2022/12/03 08:58:31;;;;;;;14.88;7.85;;;;;;;2.94;77.75;101615.66;5059195;28;20052;-62
2022/12/03 09:01:07;;;;;;;15.57;8.60;;;;;;;2.97;78.30;101625.97;5056164;28;20497;-62
2022/12/03 09:03:32;;;;;;;15.48;8.18;;;;;;;3.02;77.94;101615.94;5059161;28;20040;-62
2022/12/03 09:06:01;;;;;;;15.27;8.98;;;;;;;3.04;77.30;101617.75;5053075;28;20036;-62
2022/12/03 09:08:29;;;;;;;14.85;8.90;;;;;;;3.05;77.38;101613.50;5054592;28;20131;-62
2022/12/03 09:10:54;;;;;;;15.98;8.30;;;;;;;3.12;77.86;101613.75;5046476;28;20045;-62
2022/12/03 09:13:20;;;;;;;17.58;10.30;;;;;;;3.18;77.68;101616.53;5053249;28;20408;-62
2022/12/03 09:15:45;;;;;;;16.40;8.77;;;;;;;3.17;76.77;101612.22;5055445;28;20036;-62
2022/12/03 09:18:13;;;;;;;16.15;8.45;;;;;;;3.20;76.56;101619.16;5051203;28;20735;-62
2022/12/03 09:20:38;;;;;;;15.95;9.02;;;;;;;3.19;77.19;101612.28;5055424;28;20114;-62
2022/12/03 09:23:03;;;;;;;16.75;8.65;;;;;;;3.19;76.82;101620.84;5055025;28;20119;-61
2022/12/03 09:25:29;;;;;;;13.18;8.13;;;;;;;3.15;75.61;101611.31;5058490;28;20036;-62
2022/12/03 09:27:54;;;;;;;16.63;8.75;;;;;;;3.14;75.72;101611.28;5061547;28;20521;-62
2022/12/03 09:30:20;;;;;;;15.43;7.90;;;;;;;3.15;76.01;101608.75;5053512;28;20037;-62
2022/12/03 09:32:45;;;;;;;14.07;8.38;;;;;;;3.15;76.33;101608.75;5057101;28;20111;-62
2022/12/03 09:35:11;;;;;;;14.93;8.35;;;;;;;3.17;76.57;101611.38;5052953;28;20036;-63
2022/12/03 09:37:36;;;;;;;14.88;8.88;;;;;;;3.21;76.61;101613.22;5057381;28;20268;-62
2022/12/03 09:40:02;;;;;;;14.88;8.13;;;;;;;3.23;75.59;101609.03;5052282;28;20043;-61
2022/12/03 09:42:28;;;;;;;18.38;9.65;;;;;;;3.25;76.25;101610.81;5050306;28;20060;-62
2022/12/03 09:44:53;;;;;;;18.90;9.57;;;;;;;3.28;76.25;101612.63;5048385;28;20164;-62
2022/12/03 09:47:19;;;;;;;13.95;8.85;;;;;;;3.24;75.13;101606.53;5028660;28;20037;-62
2022/12/03 09:49:45;;;;;;;19.48;8.98;;;;;;;3.29;76.27;101599.03;5050713;28;20812;-62
2022/12/03 09:52:18;;;;;;;16.00;8.82;;;;;;;3.33;75.75;101600.84;5053249;28;20032;-62
2022/12/03 09:54:43;;;;;;;15.38;8.90;;;;;;;3.40;75.38;101592.59;5045344;28;20044;-62
2022/12/03 09:57:12;;;;;;;16.35;8.60;;;;;;;3.41;75.26;101592.63;5033936;28;20041;-60
2022/12/03 09:59:38;;;;;;;17.52;9.10;;;;;;;3.43;75.18;101595.25;5031211;28;20075;-62
2022/12/03 10:02:16;;;;;;;17.17;9.05;;;;;;;3.40;75.64;101595.16;5039503;28;20417;-62
2022/12/03 10:04:42;;;;;;;15.30;8.93;;;;;;;3.41;75.49;101595.19;5030174;28;20123;-62
2022/12/03 10:07:08;;;;;;;18.83;9.38;;;;;;;3.45;75.10;101585.94;5045457;28;21014;-62
2022/12/03 10:09:33;;;;;;;17.02;9.55;;;;;;;3.45;76.02;101588.50;5053819;28;20029;-67
2022/12/03 10:11:59;;;;;;;17.30;9.00;;;;;;;3.46;76.40;101591.13;5047143;28;20486;-68
2022/12/03 10:14:25;;;;;;;19.80;9.30;;;;;;;3.48;75.76;101588.59;5047152;28;20033;-68
2022/12/03 10:16:51;;;;;;;15.98;8.52;;;;;;;3.49;76.23;101580.13;5055033;28;20067;-68
2022/12/03 10:19:30;;;;;;;16.92;9.32;;;;;;;3.56;75.96;101579.47;5052903;28;20029;-68
2022/12/03 10:21:56;;;;;;;18.52;9.45;;;;;;;3.58;75.83;101585.53;5048143;28;20039;-68
2022/12/03 10:24:30;;;;;;;17.75;10.02;;;;;;;3.54;75.41;101570.91;5048221;28;20464;-68
2022/12/03 10:26:58;;;;;;;13.80;7.50;;;;;;;3.58;75.93;101574.44;5055349;28;20028;-67
2022/12/03 10:29:33;;;;;;;17.55;10.45;;;;;;;3.67;75.85;101561.97;5052253;28;20021;-68
2022/12/03 10:32:02;;;;;;;18.23;9.95;;;;;;;3.71;75.31;101566.31;5049397;28;20044;-67
2022/12/03 10:34:39;;;;;;;17.33;9.88;;;;;;;3.73;74.64;101562.16;5048491;28;20032;-68
2022/12/03 10:37:13;;;;;;;14.27;8.70;;;;;;;3.69;73.82;101561.19;5037949;28;20033;-68
2022/12/03 10:39:51;;;;;;;16.17;8.93;;;;;;;3.71;74.26;101551.88;5032560;28;20059;-68
2022/12/03 10:42:18;;;;;;;30.33;13.77;;;;;;;3.81;75.23;101555.59;5031855;28;20045;-68
2022/12/03 10:44:43;;;;;;;35.33;17.63;;;;;;;3.90;75.00;101543.09;5033495;28;20116;-68
2022/12/03 10:47:11;;;;;;;19.60;10.50;;;;;;;3.89;73.73;101531.97;5028782;28;20037;-68
2022/12/03 10:49:38;;;;;;;19.95;11.55;;;;;;;3.93;74.52;101533.81;5030281;28;20069;-68
2022/12/03 10:52:05;;;;;;;21.83;10.98;;;;;;;3.97;73.71;101530.50;5031056;28;20072;-68
2022/12/03 10:54:34;;;;;;;18.83;10.15;;;;;;;3.98;73.85;101533.94;5029390;28;20041;-68
2022/12/03 10:57:00;;;;;;;17.38;9.93;;;;;;;3.93;72.39;101520.16;5034146;28;20537;-67
2022/12/03 10:59:31;;;;;;;29.45;15.88;;;;;;;3.92;74.02;101520.97;5036900;28;20025;-69
2022/12/03 11:01:57;;;;;;;122.32;58.15;;;;;;;3.88;73.48;101519.16;5034056;28;20090;-68
2022/12/03 11:04:30;;;;;;;133.75;52.50;;;;;;;3.88;73.88;101521.72;5036133;28;20460;-68
2022/12/03 11:06:56;;;;;;;73.57;35.30;;;;;;;3.94;72.75;101512.53;5036891;28;20090;-68
2022/12/03 11:09:28;;;;;;;42.97;24.02;;;;;;;3.93;73.57;101515.91;5047551;28;20629;-69
2022/12/03 11:11:53;;;;;;;46.78;27.67;;;;;;;3.91;73.02;101511.59;5031461;28;20053;-68
2022/12/03 11:15:04;;;;;;;50.08;32.90;;;;;;;3.88;73.40;101514.06;5044374;28;20040;-68
2022/12/03 11:17:38;;;;;;;45.50;35.75;;;;;;;3.84;73.76;101507.97;5052933;28;20058;-68
2022/12/03 11:20:04;;;;;;;24.25;17.15;;;;;;;3.91;73.97;101509.03;5051646;28;20074;-68
2022/12/03 11:22:39;;;;;;;21.73;11.85;;;;;;;4.02;73.80;101499.97;5037880;28;20037;-68
2022/12/03 11:25:23;;;;;;;18.88;11.00;;;;;;;4.08;73.88;101501.03;5035655;28;20179;-68
2022/12/03 11:28:10;;;;;;;22.63;12.88;;;;;;;4.14;73.86;101499.47;5037612;28;20076;-68
2022/12/03 11:30:48;;;;;;;21.33;11.65;;;;;;;4.17;73.81;101503.00;5030555;28;20091;-68
2022/12/03 11:33:35;;;;;;;25.25;13.70;;;;;;;4.18;73.26;101497.03;5028157;28;20040;-68
2022/12/03 11:36:04;;;;;;;22.65;15.13;;;;;;;4.21;73.47;101494.56;5030733;28;20843;-67
2022/12/03 11:38:40;;;;;;;20.85;11.70;;;;;;;4.20;73.07;101490.28;5035635;28;20036;-68
2022/12/03 11:41:25;;;;;;;24.15;13.57;;;;;;;4.25;72.65;101483.59;5026963;28;20905;-68